Mercator — FGG9060 — position and weather

sailwx.info

Track history (hours):
 
Tides and Currents Weather Stations Pressure Air Temp Water Temp Dewpoint Dewpoint Depression Visibility Wind Speed Wind Dir Waves Ship Positions

Mercator

Last reported at 2017-Oct-18 11:27 UTC. Time now 2017-Nov-19 19:51 UTC.
Position N 47°08' W 002°50'.
Warning: this ship's position is 32 days out of date.

Length 17 m; draft 2 m.

MMSI: 227060690.

Date/timePositionNaut miles runAvg speedWind from/ knotsBaromVisibWave heightAir tempDewpointWater temp
2017-Oct-18 11:27N 47°08' W 002°50'4 8.3
2017-Oct-18 10:59N 47°11' W 002°54'4 8.6
2017-Oct-18 10:29N 47°15' W 002°58'4 8.2
2017-Oct-18 09:58N 47°18' W 003°02'4 8.0
2017-Oct-18 09:29N 47°21' W 003°06'4 8.1
2017-Oct-18 09:00N 47°24' W 003°09'4 8.6
2017-Oct-18 08:29N 47°27' W 003°13'4 8.4
2017-Oct-18 08:00N 47°31' W 003°17'4 8.7
2017-Oct-18 07:30N 47°34' W 003°20'4 8.7
2017-Oct-18 07:00N 47°38' W 003°24'2 4.2
2017-Oct-18 06:30N 47°39' W 003°27'0 0.0
2017-Oct-18 05:37N 47°39' W 003°27'0 0.0
2017-Oct-18 05:22N 47°39' W 003°27'0 0.0
2017-Oct-18 04:58N 47°39' W 003°27'0 0.0
2017-Oct-18 04:28N 47°39' W 003°27'0 0.0
2017-Oct-18 03:58N 47°39' W 003°27'0 0.0
2017-Oct-18 03:28N 47°39' W 003°27'0 0.0
2017-Oct-18 03:00N 47°39' W 003°27'0 0.0
2017-Oct-18 02:30N 47°39' W 003°27'0 0.0
2017-Oct-18 01:58N 47°39' W 003°27'0 0.0
2017-Oct-18 01:30N 47°39' W 003°27'0 0.0
2017-Oct-18 01:00N 47°39' W 003°27'0 0.0
2017-Oct-18 00:30N 47°39' W 003°27'0 0.0
2017-Oct-18 00:00N 47°39' W 003°27'0 0.0
2017-Oct-17 23:30N 47°39' W 003°27'0 0.0
2017-Oct-17 22:59N 47°39' W 003°27'0 0.0
2017-Oct-17 22:29N 47°39' W 003°27'0 0.0
2017-Oct-17 22:00N 47°39' W 003°27'0 0.0
2017-Oct-17 21:28N 47°39' W 003°27'0 0.0
2017-Oct-17 20:58N 47°39' W 003°27'0 0.0
2017-Oct-17 20:29N 47°39' W 003°27'0 0.0
2017-Oct-17 19:59N 47°39' W 003°27'0 0.0
2017-Oct-17 19:29N 47°39' W 003°27'0 0.0
2017-Oct-17 18:59N 47°39' W 003°27'0 0.0
2017-Oct-17 18:29N 47°39' W 003°27'0 0.0
2017-Oct-17 17:59N 47°39' W 003°27'0 0.0
2017-Oct-17 17:29N 47°39' W 003°27'0 0.0
2017-Oct-17 16:59N 47°39' W 003°27'0 0.0
2017-Oct-17 16:29N 47°39' W 003°27'0 0.0
2017-Oct-17 15:59N 47°39' W 003°27'0 0.0
2017-Oct-17 15:29N 47°39' W 003°27'0 0.0
2017-Oct-17 15:00N 47°39' W 003°27'0 0.0
2017-Oct-17 14:30N 47°39' W 003°27'0 0.0
2017-Oct-17 14:00N 47°39' W 003°27'0 0.0
2017-Oct-17 13:31N 47°39' W 003°27'3 5.2
2017-Oct-17 13:01N 47°40' W 003°30'4 8.4
2017-Oct-17 12:30N 47°42' W 003°35'4 8.7
2017-Oct-17 12:00N 47°44' W 003°41'12 5.5
2017-Oct-17 09:46N 47°51' W 003°56'  
Track history (hours):
 
Tides and Currents Weather Stations Pressure Air Temp Water Temp Dewpoint Dewpoint Depression Visibility Wind Speed Wind Dir Waves Ship Positions

Mercator

Last reported at 2017-Oct-18 11:27 UTC. Time now 2017-Nov-19 19:51 UTC.
Position N 47°08' W 002°50'.
Warning: this ship's position is 32 days out of date.

Length 17 m; draft 2 m.

MMSI: 227060690.

Date/timePositionNaut miles runAvg speedWind from/ knotsBaromVisibWave heightAir tempDewpointWater temp
2017-Oct-18 11:27N 47°08' W 002°50'4 8.3
2017-Oct-18 10:59N 47°11' W 002°54'4 8.6
2017-Oct-18 10:29N 47°15' W 002°58'4 8.2
2017-Oct-18 09:58N 47°18' W 003°02'4 8.0
2017-Oct-18 09:29N 47°21' W 003°06'4 8.1
2017-Oct-18 09:00N 47°24' W 003°09'4 8.6
2017-Oct-18 08:29N 47°27' W 003°13'4 8.4
2017-Oct-18 08:00N 47°31' W 003°17'4 8.7
2017-Oct-18 07:30N 47°34' W 003°20'4 8.7
2017-Oct-18 07:00N 47°38' W 003°24'2 4.2
2017-Oct-18 06:30N 47°39' W 003°27'0 0.0
2017-Oct-18 05:37N 47°39' W 003°27'0 0.0
2017-Oct-18 05:22N 47°39' W 003°27'0 0.0
2017-Oct-18 04:58N 47°39' W 003°27'0 0.0
2017-Oct-18 04:28N 47°39' W 003°27'0 0.0
2017-Oct-18 03:58N 47°39' W 003°27'0 0.0
2017-Oct-18 03:28N 47°39' W 003°27'0 0.0
2017-Oct-18 03:00N 47°39' W 003°27'0 0.0
2017-Oct-18 02:30N 47°39' W 003°27'0 0.0
2017-Oct-18 01:58N 47°39' W 003°27'0 0.0
2017-Oct-18 01:30N 47°39' W 003°27'0 0.0
2017-Oct-18 01:00N 47°39' W 003°27'0 0.0
2017-Oct-18 00:30N 47°39' W 003°27'0 0.0
2017-Oct-18 00:00N 47°39' W 003°27'0 0.0
2017-Oct-17 23:30N 47°39' W 003°27'0 0.0
2017-Oct-17 22:59N 47°39' W 003°27'0 0.0
2017-Oct-17 22:29N 47°39' W 003°27'0 0.0
2017-Oct-17 22:00N 47°39' W 003°27'0 0.0
2017-Oct-17 21:28N 47°39' W 003°27'0 0.0
2017-Oct-17 20:58N 47°39' W 003°27'0 0.0
2017-Oct-17 20:29N 47°39' W 003°27'0 0.0
2017-Oct-17 19:59N 47°39' W 003°27'0 0.0
2017-Oct-17 19:29N 47°39' W 003°27'0 0.0
2017-Oct-17 18:59N 47°39' W 003°27'0 0.0
2017-Oct-17 18:29N 47°39' W 003°27'0 0.0
2017-Oct-17 17:59N 47°39' W 003°27'0 0.0
2017-Oct-17 17:29N 47°39' W 003°27'0 0.0
2017-Oct-17 16:59N 47°39' W 003°27'0 0.0
2017-Oct-17 16:29N 47°39' W 003°27'0 0.0
2017-Oct-17 15:59N 47°39' W 003°27'0 0.0
2017-Oct-17 15:29N 47°39' W 003°27'0 0.0
2017-Oct-17 15:00N 47°39' W 003°27'0 0.0
2017-Oct-17 14:30N 47°39' W 003°27'0 0.0
2017-Oct-17 14:00N 47°39' W 003°27'0 0.0
2017-Oct-17 13:31N 47°39' W 003°27'3 5.2
2017-Oct-17 13:01N 47°40' W 003°30'4 8.4
2017-Oct-17 12:30N 47°42' W 003°35'4 8.7
2017-Oct-17 12:00N 47°44' W 003°41'12 5.5
2017-Oct-17 09:46N 47°51' W 003°56'  

Dump ship's entire track history